Terminal Aerodrome Forecast
Issued by NWS Honolulu, HI

Home | Current Version | Previous Version | Text Only | Print | Product List | Glossary On
Versions: 1 2 3 4 5 6 7 8 9 10 11 12 13 14 15 16 17 18 19 20 21 22 23
000
FTPA31 PHFO 301136
TAFHNL
TAF
PHNL 301136Z 3012/0118 06009KT P6SM FEW030 SCT050
     FM302000 07012G20KT P6SM FEW030 SCT050
     FM010500 06010KT P6SM FEW030 SCT050=

USA.gov is the U.S. government's official web portal to all federal, state and local government web resources and services.